RYR89VJ EDDK-LIPE
Flight info
| Callsign | RYR89VJ |
|---|---|
| Flight time | 1h 16m |
| Altitude | 34000 |
| Route | KUMIK1B KUMIK Y854 BOMBI DCT GIGET DCT ABUKA/N0429F350 DCT LALMI DCT BATUB DCT TIRUL M738 NATAG DCT LORLO DCT UNTAD DCT NEGIK DCT ADOSA/N0335F190 M738 BENUS |
| Aircraft | B738/M-SDE2E3FGHIRWXY/LB1 |
Departure
| Time | 2026-04-25 14:11 |
|---|---|
| Airport | Cologne Bonn Airport (EDDK) |
Arrival
| Time | 2026-04-25 15:28 |
|---|---|
| Airport | Bologna Guglielmo Marconi Airport (LIPE) |
| Time | Latitude | Longitude | Altitude | Speed | Heading |
|---|---|---|---|---|---|
| 2026-04-25 13:42 | 50.87802 | 7.12424 | 234 ft | 0 kts | 288° |
| 2026-04-25 13:53 | 50.87797 | 7.12449 | 231 ft | 2 kts | 288° |
| 2026-04-25 13:54 | 50.87792 | 7.12474 | 232 ft | 2 kts | 288° |
| 2026-04-25 13:54 | 50.87787 | 7.12499 | 234 ft | 2 kts | 290° |
| 2026-04-25 13:54 | 50.87780 | 7.12523 | 232 ft | 2 kts | 309° |
| 2026-04-25 13:54 | 50.87767 | 7.12540 | 233 ft | 2 kts | 344° |
| 2026-04-25 13:55 | 50.87751 | 7.12541 | 231 ft | 2 kts | 11° |
| 2026-04-25 13:55 | 50.87735 | 7.12535 | 234 ft | 2 kts | 18° |
| 2026-04-25 13:55 | 50.87721 | 7.12527 | 233 ft | 1 kts | 19° |
| 2026-04-25 13:55 | 50.87718 | 7.12526 | 232 ft | 0 kts | 19° |
| 2026-04-25 13:57 | 50.87719 | 7.12526 | 232 ft | 1 kts | 19° |
| 2026-04-25 13:58 | 50.87731 | 7.12533 | 232 ft | 3 kts | 22° |
| 2026-04-25 13:58 | 50.87754 | 7.12564 | 235 ft | 6 kts | 60° |
| 2026-04-25 13:58 | 50.87765 | 7.12613 | 233 ft | 6 kts | 74° |
| 2026-04-25 13:59 | 50.87769 | 7.12656 | 231 ft | 7 kts | 90° |
| 2026-04-25 13:59 | 50.87754 | 7.12713 | 232 ft | 10 kts | 124° |
| 2026-04-25 13:59 | 50.87700 | 7.12802 | 231 ft | 12 kts | 136° |
| 2026-04-25 13:59 | 50.87642 | 7.12888 | 231 ft | 11 kts | 138° |
| 2026-04-25 14:00 | 50.87601 | 7.12945 | 231 ft | 13 kts | 138° |
| 2026-04-25 14:00 | 50.87499 | 7.13090 | 234 ft | 15 kts | 138° |
| 2026-04-25 14:00 | 50.87420 | 7.13201 | 231 ft | 15 kts | 138° |
| 2026-04-25 14:00 | 50.87346 | 7.13311 | 231 ft | 14 kts | 136° |
| 2026-04-25 14:01 | 50.87276 | 7.13415 | 232 ft | 14 kts | 137° |
| 2026-04-25 14:01 | 50.87208 | 7.13514 | 235 ft | 13 kts | 137° |
| 2026-04-25 14:01 | 50.87140 | 7.13612 | 237 ft | 14 kts | 138° |
| 2026-04-25 14:01 | 50.87057 | 7.13732 | 241 ft | 16 kts | 138° |
| 2026-04-25 14:02 | 50.86973 | 7.13850 | 244 ft | 16 kts | 138° |
| 2026-04-25 14:02 | 50.86894 | 7.13965 | 252 ft | 15 kts | 137° |
| 2026-04-25 14:02 | 50.86819 | 7.14074 | 254 ft | 15 kts | 137° |
| 2026-04-25 14:02 | 50.86763 | 7.14130 | 254 ft | 14 kts | 169° |
| 2026-04-25 14:03 | 50.86660 | 7.14243 | 260 ft | 14 kts | 137° |
| 2026-04-25 14:03 | 50.86585 | 7.14353 | 261 ft | 16 kts | 138° |
| 2026-04-25 14:03 | 50.86501 | 7.14472 | 265 ft | 16 kts | 138° |
| 2026-04-25 14:03 | 50.86421 | 7.14588 | 270 ft | 15 kts | 137° |
| 2026-04-25 14:04 | 50.86344 | 7.14698 | 274 ft | 15 kts | 138° |
| 2026-04-25 14:04 | 50.86270 | 7.14803 | 278 ft | 14 kts | 136° |
| 2026-04-25 14:04 | 50.86202 | 7.14906 | 282 ft | 13 kts | 136° |
| 2026-04-25 14:04 | 50.86135 | 7.15007 | 285 ft | 13 kts | 136° |
| 2026-04-25 14:05 | 50.86070 | 7.15099 | 287 ft | 13 kts | 138° |
| 2026-04-25 14:05 | 50.86007 | 7.15192 | 292 ft | 12 kts | 136° |
| 2026-04-25 14:05 | 50.85935 | 7.15297 | 292 ft | 16 kts | 138° |
| 2026-04-25 14:05 | 50.85851 | 7.15415 | 297 ft | 16 kts | 138° |
| 2026-04-25 14:06 | 50.85772 | 7.15530 | 301 ft | 15 kts | 137° |
| 2026-04-25 14:06 | 50.85695 | 7.15640 | 300 ft | 15 kts | 137° |
| 2026-04-25 14:06 | 50.85622 | 7.15747 | 303 ft | 14 kts | 137° |
| 2026-04-25 14:06 | 50.85554 | 7.15846 | 305 ft | 11 kts | 137° |
| 2026-04-25 14:07 | 50.85523 | 7.15892 | 306 ft | 4 kts | 137° |
| 2026-04-25 14:07 | 50.85502 | 7.15922 | 307 ft | 4 kts | 137° |
| 2026-04-25 14:07 | 50.85479 | 7.15955 | 307 ft | 5 kts | 137° |
| 2026-04-25 14:07 | 50.85452 | 7.15995 | 307 ft | 6 kts | 137° |
| 2026-04-25 14:08 | 50.85417 | 7.16047 | 307 ft | 9 kts | 137° |
| 2026-04-25 14:08 | 50.85371 | 7.16118 | 309 ft | 9 kts | 129° |
| 2026-04-25 14:08 | 50.85342 | 7.16209 | 309 ft | 10 kts | 107° |
| 2026-04-25 14:08 | 50.85341 | 7.16340 | 308 ft | 14 kts | 76° |
| 2026-04-25 14:09 | 50.85402 | 7.16473 | 307 ft | 9 kts | 34° |
| 2026-04-25 14:09 | 50.85421 | 7.16491 | 307 ft | 1 kts | 28° |
| 2026-04-25 14:09 | 50.85427 | 7.16495 | 307 ft | 3 kts | 24° |
| 2026-04-25 14:09 | 50.85478 | 7.16516 | 308 ft | 19 kts | 7° |
| 2026-04-25 14:10 | 50.85586 | 7.16474 | 307 ft | 0 kts | 319° |
| 2026-04-25 14:11 | 50.85591 | 7.16467 | 308 ft | 11 kts | 319° |
| 2026-04-25 14:11 | 50.85886 | 7.16038 | 301 ft | 103 kts | 317° |
| 2026-04-25 14:11 | 50.86613 | 7.14981 | 378 ft | 172 kts | 317° |
| 2026-04-25 14:11 | 50.87502 | 7.13734 | 1685 ft | 157 kts | 316° |
| 2026-04-25 14:12 | 50.88297 | 7.12573 | 3109 ft | 157 kts | 317° |
| 2026-04-25 14:12 | 50.89156 | 7.11458 | 4040 ft | 171 kts | 332° |
| 2026-04-25 14:12 | 50.90445 | 7.11184 | 4290 ft | 208 kts | 11° |
| 2026-04-25 14:12 | 50.91776 | 7.12243 | 4876 ft | 219 kts | 26° |
| 2026-04-25 14:13 | 50.93092 | 7.13492 | 5571 ft | 226 kts | 38° |
| 2026-04-25 14:13 | 50.94098 | 7.15528 | 6086 ft | 252 kts | 56° |
| 2026-04-25 14:13 | 50.94959 | 7.18132 | 6536 ft | 276 kts | 61° |
| 2026-04-25 14:13 | 50.95806 | 7.20925 | 7334 ft | 284 kts | 62° |
| 2026-04-25 14:14 | 50.96649 | 7.23714 | 8260 ft | 285 kts | 61° |
| 2026-04-25 14:14 | 50.97521 | 7.26559 | 9162 ft | 290 kts | 61° |
| 2026-04-25 14:14 | 50.98397 | 7.29377 | 10027 ft | 294 kts | 60° |
| 2026-04-25 14:14 | 50.99311 | 7.32290 | 10676 ft | 307 kts | 60° |
| 2026-04-25 14:15 | 51.00309 | 7.35449 | 10934 ft | 332 kts | 60° |
| 2026-04-25 14:15 | 51.01018 | 7.37694 | 11361 ft | 339 kts | 61° |
| 2026-04-25 14:15 | 51.01804 | 7.42558 | 12430 ft | 354 kts | 89° |
| 2026-04-25 14:15 | 51.01386 | 7.46427 | 13306 ft | 359 kts | 104° |
| 2026-04-25 14:16 | 51.00651 | 7.50238 | 14124 ft | 364 kts | 107° |
| 2026-04-25 14:16 | 50.99853 | 7.54088 | 14819 ft | 369 kts | 107° |
| 2026-04-25 14:16 | 50.99046 | 7.57977 | 15542 ft | 374 kts | 107° |
| 2026-04-25 14:16 | 50.98242 | 7.61927 | 16266 ft | 378 kts | 107° |
| 2026-04-25 14:17 | 50.97444 | 7.65913 | 16987 ft | 382 kts | 106° |
| 2026-04-25 14:17 | 50.96642 | 7.69963 | 17725 ft | 386 kts | 106° |
| 2026-04-25 14:17 | 50.95835 | 7.74055 | 18446 ft | 390 kts | 106° |
| 2026-04-25 14:17 | 50.95022 | 7.78162 | 19061 ft | 395 kts | 106° |
| 2026-04-25 14:18 | 50.94129 | 7.82320 | 19685 ft | 399 kts | 114° |
| 2026-04-25 14:18 | 50.92707 | 7.86116 | 20317 ft | 402 kts | 124° |
| 2026-04-25 14:18 | 50.91120 | 7.89785 | 20915 ft | 406 kts | 124° |
| 2026-04-25 14:18 | 50.89505 | 7.93495 | 21525 ft | 410 kts | 124° |
| 2026-04-25 14:19 | 50.87904 | 7.97246 | 22135 ft | 414 kts | 123° |
| 2026-04-25 14:19 | 50.86318 | 8.01020 | 22717 ft | 417 kts | 123° |
| 2026-04-25 14:19 | 50.84712 | 8.04860 | 23308 ft | 420 kts | 124° |
| 2026-04-25 14:19 | 50.82777 | 8.08333 | 23807 ft | 424 kts | 142° |
| 2026-04-25 14:20 | 50.80340 | 8.10960 | 24316 ft | 425 kts | 148° |
| 2026-04-25 14:20 | 50.78679 | 8.12612 | 24638 ft | 427 kts | 149° |
| 2026-04-25 14:20 | 50.75280 | 8.15932 | 25211 ft | 432 kts | 149° |
| 2026-04-25 14:20 | 50.72717 | 8.18440 | 25652 ft | 436 kts | 149° |
| 2026-04-25 14:21 | 50.70136 | 8.20989 | 26094 ft | 439 kts | 149° |
| 2026-04-25 14:21 | 50.67556 | 8.23556 | 26529 ft | 442 kts | 148° |
| 2026-04-25 14:21 | 50.65057 | 8.26054 | 26938 ft | 445 kts | 148° |
| 2026-04-25 14:21 | 50.62440 | 8.28675 | 27352 ft | 448 kts | 148° |
| 2026-04-25 14:22 | 50.59792 | 8.31325 | 27749 ft | 451 kts | 148° |
| 2026-04-25 14:22 | 50.57136 | 8.33982 | 28140 ft | 455 kts | 148° |
| 2026-04-25 14:22 | 50.54453 | 8.36660 | 28538 ft | 458 kts | 148° |
| 2026-04-25 14:22 | 50.51762 | 8.39342 | 28923 ft | 461 kts | 148° |
| 2026-04-25 14:23 | 50.49040 | 8.42051 | 29294 ft | 464 kts | 148° |
| 2026-04-25 14:23 | 50.46342 | 8.44732 | 29656 ft | 467 kts | 148° |
| 2026-04-25 14:23 | 50.43592 | 8.47462 | 30004 ft | 470 kts | 148° |
| 2026-04-25 14:23 | 50.40821 | 8.50209 | 30317 ft | 473 kts | 148° |
| 2026-04-25 14:24 | 50.38031 | 8.52965 | 30621 ft | 475 kts | 149° |
| 2026-04-25 14:24 | 50.35260 | 8.55491 | 30928 ft | 476 kts | 152° |
| 2026-04-25 14:24 | 50.32705 | 8.57650 | 31212 ft | 477 kts | 153° |
| 2026-04-25 14:24 | 50.29756 | 8.60067 | 31505 ft | 479 kts | 154° |
| 2026-04-25 14:25 | 50.26803 | 8.62475 | 31783 ft | 481 kts | 153° |
| 2026-04-25 14:25 | 50.24055 | 8.64733 | 32039 ft | 482 kts | 153° |
| 2026-04-25 14:25 | 50.21085 | 8.67195 | 32375 ft | 483 kts | 153° |
| 2026-04-25 14:25 | 50.20085 | 8.68027 | 32515 ft | 482 kts | 153° |
| 2026-04-25 14:26 | 50.15189 | 8.72115 | 33266 ft | 478 kts | 153° |
| 2026-04-25 14:26 | 50.12265 | 8.74551 | 33673 ft | 476 kts | 153° |
| 2026-04-25 14:26 | 50.09332 | 8.76908 | 34024 ft | 475 kts | 158° |
| 2026-04-25 14:26 | 50.06201 | 8.78511 | 34314 ft | 471 kts | 171° |
| 2026-04-25 14:27 | 50.02976 | 8.79195 | 34652 ft | 466 kts | 181° |
| 2026-04-25 14:27 | 49.99767 | 8.78999 | 34963 ft | 460 kts | 191° |
| 2026-04-25 14:27 | 49.96600 | 8.78311 | 35271 ft | 459 kts | 192° |
| 2026-04-25 14:27 | 49.93449 | 8.77585 | 35545 ft | 458 kts | 192° |
| 2026-04-25 14:28 | 49.90298 | 8.76871 | 35836 ft | 458 kts | 191° |
| 2026-04-25 14:28 | 49.87143 | 8.76187 | 36150 ft | 457 kts | 191° |
| 2026-04-25 14:28 | 49.83995 | 8.75528 | 36444 ft | 456 kts | 191° |
| 2026-04-25 14:28 | 49.80845 | 8.74883 | 36722 ft | 455 kts | 191° |
| 2026-04-25 14:29 | 49.77713 | 8.74248 | 36998 ft | 455 kts | 191° |
| 2026-04-25 14:29 | 49.74586 | 8.73613 | 37298 ft | 454 kts | 191° |
| 2026-04-25 14:29 | 49.71490 | 8.72984 | 37563 ft | 453 kts | 191° |
| 2026-04-25 14:29 | 49.68371 | 8.72350 | 37835 ft | 452 kts | 191° |
| 2026-04-25 14:30 | 49.65256 | 8.71714 | 38084 ft | 452 kts | 191° |
| 2026-04-25 14:30 | 49.59047 | 8.70448 | 38588 ft | 450 kts | 191° |
| 2026-04-25 14:30 | 49.55938 | 8.69815 | 38811 ft | 449 kts | 191° |
| 2026-04-25 14:31 | 49.52839 | 8.69186 | 38966 ft | 449 kts | 191° |
| 2026-04-25 14:31 | 49.49729 | 8.68698 | 39054 ft | 453 kts | 182° |
| 2026-04-25 14:31 | 49.46608 | 8.69372 | 39060 ft | 456 kts | 165° |
| 2026-04-25 14:31 | 49.43702 | 8.71334 | 39094 ft | 459 kts | 148° |
| 2026-04-25 14:32 | 49.38776 | 8.77670 | 39103 ft | 466 kts | 140° |
| 2026-04-25 14:32 | 49.33538 | 8.83483 | 39104 ft | 467 kts | 155° |
| 2026-04-25 14:33 | 49.27473 | 8.87127 | 39099 ft | 466 kts | 162° |
| 2026-04-25 14:33 | 49.21412 | 8.90435 | 39078 ft | 458 kts | 162° |
| 2026-04-25 14:34 | 49.15443 | 8.93744 | 39087 ft | 455 kts | 162° |
| 2026-04-25 14:34 | 49.09516 | 8.97073 | 39088 ft | 453 kts | 162° |
| 2026-04-25 14:35 | 49.03607 | 9.00403 | 39091 ft | 453 kts | 162° |
| 2026-04-25 14:35 | 48.97683 | 9.03733 | 39088 ft | 453 kts | 162° |
| 2026-04-25 14:36 | 48.91757 | 9.07054 | 39086 ft | 455 kts | 162° |
| 2026-04-25 14:36 | 48.85803 | 9.10382 | 39081 ft | 457 kts | 162° |
| 2026-04-25 14:37 | 48.79829 | 9.13712 | 39077 ft | 459 kts | 162° |
| 2026-04-25 14:37 | 48.73826 | 9.17050 | 39078 ft | 460 kts | 162° |
| 2026-04-25 14:38 | 48.67843 | 9.20368 | 39078 ft | 462 kts | 162° |
| 2026-04-25 14:38 | 48.61787 | 9.23718 | 39080 ft | 464 kts | 162° |
| 2026-04-25 14:39 | 48.55722 | 9.27065 | 39073 ft | 465 kts | 162° |
| 2026-04-25 14:39 | 48.49644 | 9.30411 | 39076 ft | 465 kts | 162° |
| 2026-04-25 14:40 | 48.43560 | 9.33751 | 39079 ft | 465 kts | 162° |
| 2026-04-25 14:40 | 48.37478 | 9.37082 | 39074 ft | 464 kts | 161° |
| 2026-04-25 14:41 | 48.31424 | 9.40388 | 39073 ft | 463 kts | 161° |
| 2026-04-25 14:41 | 48.25363 | 9.43691 | 39074 ft | 462 kts | 161° |
| 2026-04-25 14:42 | 48.21326 | 9.45886 | 39075 ft | 461 kts | 161° |
| 2026-04-25 14:42 | 48.13312 | 9.50233 | 39075 ft | 459 kts | 161° |
| 2026-04-25 14:43 | 48.07314 | 9.53478 | 39073 ft | 458 kts | 161° |
| 2026-04-25 14:43 | 48.01378 | 9.56970 | 39065 ft | 459 kts | 153° |
| 2026-04-25 14:44 | 47.96042 | 9.62175 | 39075 ft | 459 kts | 146° |
| 2026-04-25 14:44 | 47.90818 | 9.67643 | 39079 ft | 458 kts | 146° |
| 2026-04-25 14:45 | 47.89972 | 9.68523 | 39075 ft | 458 kts | 146° |
| 2026-04-25 14:45 | 47.86551 | 9.72061 | 39081 ft | 458 kts | 146° |
| 2026-04-25 14:46 | 47.81654 | 9.77067 | 39078 ft | 459 kts | 146° |
| 2026-04-25 14:46 | 47.76416 | 9.82384 | 39085 ft | 458 kts | 146° |
| 2026-04-25 14:47 | 47.72896 | 9.85947 | 39084 ft | 459 kts | 146° |
| 2026-04-25 14:47 | 47.65866 | 9.93046 | 39091 ft | 459 kts | 146° |
| 2026-04-25 14:48 | 47.60589 | 9.98363 | 39094 ft | 459 kts | 147° |
| 2026-04-25 14:48 | 47.55301 | 10.03676 | 39102 ft | 460 kts | 147° |
| 2026-04-25 14:49 | 47.50003 | 10.08988 | 39110 ft | 460 kts | 147° |
| 2026-04-25 14:49 | 47.45602 | 10.13390 | 39109 ft | 460 kts | 147° |
| 2026-04-25 14:50 | 47.40302 | 10.18679 | 39112 ft | 460 kts | 147° |
| 2026-04-25 14:50 | 47.35003 | 10.23955 | 39118 ft | 459 kts | 147° |
| 2026-04-25 14:51 | 47.29718 | 10.29203 | 39129 ft | 457 kts | 148° |
| 2026-04-25 14:51 | 47.24447 | 10.34426 | 39121 ft | 457 kts | 148° |
| 2026-04-25 14:52 | 47.19173 | 10.39638 | 39116 ft | 457 kts | 148° |
| 2026-04-25 14:52 | 47.14754 | 10.43996 | 39117 ft | 456 kts | 148° |
| 2026-04-25 14:53 | 47.08630 | 10.50022 | 39112 ft | 458 kts | 148° |
| 2026-04-25 14:53 | 47.03016 | 10.54302 | 39080 ft | 452 kts | 165° |
| 2026-04-25 14:54 | 46.96993 | 10.56930 | 39073 ft | 451 kts | 167° |
| 2026-04-25 14:54 | 46.90975 | 10.59557 | 39065 ft | 452 kts | 166° |
| 2026-04-25 14:55 | 46.84970 | 10.62269 | 39060 ft | 452 kts | 166° |
| 2026-04-25 14:55 | 46.78967 | 10.64965 | 39072 ft | 451 kts | 166° |
| 2026-04-25 14:56 | 46.72963 | 10.67646 | 39074 ft | 451 kts | 167° |
| 2026-04-25 14:56 | 46.66902 | 10.69858 | 39081 ft | 449 kts | 171° |
| 2026-04-25 14:57 | 46.63826 | 10.70827 | 38644 ft | 455 kts | 172° |
| 2026-04-25 14:57 | 46.60729 | 10.71790 | 38089 ft | 454 kts | 172° |
| 2026-04-25 14:57 | 46.57660 | 10.72756 | 37700 ft | 448 kts | 172° |
| 2026-04-25 14:57 | 46.54629 | 10.73725 | 37244 ft | 444 kts | 172° |
| 2026-04-25 14:58 | 46.51637 | 10.74694 | 36903 ft | 437 kts | 172° |
| 2026-04-25 14:58 | 46.48687 | 10.75654 | 36514 ft | 433 kts | 172° |
| 2026-04-25 14:58 | 46.45760 | 10.76608 | 36134 ft | 430 kts | 172° |
| 2026-04-25 14:58 | 46.42864 | 10.77550 | 35759 ft | 426 kts | 172° |
| 2026-04-25 14:59 | 46.40014 | 10.78476 | 35360 ft | 423 kts | 172° |
| 2026-04-25 14:59 | 46.37151 | 10.79404 | 34995 ft | 418 kts | 173° |
| 2026-04-25 14:59 | 46.34324 | 10.80321 | 34614 ft | 416 kts | 173° |
| 2026-04-25 14:59 | 46.31507 | 10.81232 | 34228 ft | 413 kts | 173° |
| 2026-04-25 15:00 | 46.28711 | 10.82135 | 33802 ft | 410 kts | 173° |
| 2026-04-25 15:00 | 46.25940 | 10.83030 | 33400 ft | 407 kts | 173° |
| 2026-04-25 15:00 | 46.23187 | 10.83919 | 33017 ft | 403 kts | 173° |
| 2026-04-25 15:00 | 46.20471 | 10.84796 | 32713 ft | 398 kts | 174° |
| 2026-04-25 15:01 | 46.17784 | 10.85661 | 32449 ft | 392 kts | 174° |
| 2026-04-25 15:01 | 46.15142 | 10.86510 | 32174 ft | 386 kts | 174° |
| 2026-04-25 15:01 | 46.12542 | 10.87345 | 31895 ft | 380 kts | 174° |
| 2026-04-25 15:01 | 46.09977 | 10.88166 | 31552 ft | 377 kts | 174° |
| 2026-04-25 15:02 | 46.07426 | 10.88980 | 31209 ft | 374 kts | 174° |
| 2026-04-25 15:02 | 46.04895 | 10.89786 | 30844 ft | 371 kts | 174° |
| 2026-04-25 15:02 | 46.02380 | 10.90589 | 30518 ft | 369 kts | 174° |
| 2026-04-25 15:02 | 45.99877 | 10.91387 | 30144 ft | 368 kts | 174° |
| 2026-04-25 15:03 | 45.97387 | 10.92181 | 29725 ft | 365 kts | 174° |
| 2026-04-25 15:03 | 45.94925 | 10.92965 | 29389 ft | 361 kts | 174° |
| 2026-04-25 15:03 | 45.92482 | 10.93742 | 28999 ft | 359 kts | 174° |
| 2026-04-25 15:03 | 45.90055 | 10.94513 | 28634 ft | 356 kts | 174° |
| 2026-04-25 15:04 | 45.87641 | 10.95280 | 28273 ft | 354 kts | 174° |
| 2026-04-25 15:04 | 45.85242 | 10.96041 | 27903 ft | 352 kts | 174° |
| 2026-04-25 15:04 | 45.82865 | 10.96795 | 27541 ft | 349 kts | 173° |
| 2026-04-25 15:04 | 45.80528 | 10.97536 | 27257 ft | 344 kts | 174° |
| 2026-04-25 15:05 | 45.78180 | 10.98276 | 26931 ft | 341 kts | 174° |
| 2026-04-25 15:05 | 45.75881 | 10.99001 | 26602 ft | 335 kts | 174° |
| 2026-04-25 15:05 | 45.73615 | 10.99712 | 26273 ft | 333 kts | 174° |
| 2026-04-25 15:06 | 45.69069 | 11.01134 | 25578 ft | 337 kts | 173° |
| 2026-04-25 15:06 | 45.66747 | 11.01859 | 25218 ft | 345 kts | 173° |
| 2026-04-25 15:06 | 45.64394 | 11.02595 | 24880 ft | 348 kts | 173° |
| 2026-04-25 15:06 | 45.62019 | 11.03263 | 24517 ft | 346 kts | 175° |
| 2026-04-25 15:07 | 45.59674 | 11.03838 | 24167 ft | 344 kts | 176° |
| 2026-04-25 15:07 | 45.57311 | 11.04394 | 23819 ft | 342 kts | 176° |
| 2026-04-25 15:07 | 45.54972 | 11.04944 | 23452 ft | 340 kts | 176° |
| 2026-04-25 15:07 | 45.52639 | 11.05497 | 23049 ft | 339 kts | 175° |
| 2026-04-25 15:08 | 45.50347 | 11.06046 | 22664 ft | 337 kts | 175° |
| 2026-04-25 15:08 | 45.48040 | 11.06603 | 22330 ft | 335 kts | 175° |
| 2026-04-25 15:08 | 45.45752 | 11.07157 | 21964 ft | 333 kts | 175° |
| 2026-04-25 15:08 | 45.43445 | 11.07717 | 21605 ft | 331 kts | 175° |
| 2026-04-25 15:09 | 45.41214 | 11.08258 | 21269 ft | 329 kts | 175° |
| 2026-04-25 15:09 | 45.38971 | 11.08803 | 20933 ft | 327 kts | 175° |
| 2026-04-25 15:09 | 45.34513 | 11.09884 | 20258 ft | 323 kts | 174° |
| 2026-04-25 15:10 | 45.32303 | 11.10420 | 19950 ft | 322 kts | 174° |
| 2026-04-25 15:10 | 45.30102 | 11.10952 | 19601 ft | 320 kts | 174° |
| 2026-04-25 15:10 | 45.25724 | 11.12011 | 18934 ft | 318 kts | 174° |
| 2026-04-25 15:11 | 45.23546 | 11.12537 | 18602 ft | 317 kts | 174° |
| 2026-04-25 15:11 | 45.21374 | 11.13061 | 18271 ft | 317 kts | 174° |
| 2026-04-25 15:11 | 45.19207 | 11.13584 | 17889 ft | 316 kts | 174° |
| 2026-04-25 15:12 | 45.14877 | 11.14625 | 17166 ft | 315 kts | 173° |
| 2026-04-25 15:12 | 45.12723 | 11.15141 | 16817 ft | 314 kts | 173° |
| 2026-04-25 15:12 | 45.10577 | 11.15655 | 16481 ft | 312 kts | 173° |
| 2026-04-25 15:12 | 45.09851 | 11.15829 | 16369 ft | 312 kts | 173° |
| 2026-04-25 15:13 | 45.06307 | 11.16677 | 15830 ft | 310 kts | 173° |
| 2026-04-25 15:13 | 45.02059 | 11.17692 | 15184 ft | 309 kts | 173° |
| 2026-04-25 15:13 | 44.99944 | 11.18196 | 14870 ft | 308 kts | 173° |
| 2026-04-25 15:14 | 44.97849 | 11.18696 | 14560 ft | 307 kts | 173° |
| 2026-04-25 15:14 | 44.95733 | 11.19201 | 14237 ft | 307 kts | 173° |
| 2026-04-25 15:14 | 44.93629 | 11.19702 | 13919 ft | 306 kts | 173° |
| 2026-04-25 15:14 | 44.91532 | 11.20201 | 13577 ft | 306 kts | 173° |
| 2026-04-25 15:15 | 44.89431 | 11.20698 | 13214 ft | 306 kts | 173° |
| 2026-04-25 15:15 | 44.87339 | 11.21188 | 12869 ft | 305 kts | 173° |
| 2026-04-25 15:15 | 44.85243 | 11.21678 | 12544 ft | 304 kts | 173° |
| 2026-04-25 15:15 | 44.83162 | 11.22165 | 12215 ft | 303 kts | 173° |
| 2026-04-25 15:16 | 44.81084 | 11.22650 | 11882 ft | 302 kts | 172° |
| 2026-04-25 15:16 | 44.79012 | 11.23133 | 11553 ft | 301 kts | 172° |
| 2026-04-25 15:16 | 44.74954 | 11.22537 | 10919 ft | 294 kts | 199° |
| 2026-04-25 15:17 | 44.71029 | 11.20920 | 10252 ft | 295 kts | 190° |
| 2026-04-25 15:17 | 44.69036 | 11.21118 | 10090 ft | 291 kts | 163° |
| 2026-04-25 15:17 | 44.67304 | 11.22533 | 9848 ft | 290 kts | 137° |
| 2026-04-25 15:18 | 44.66109 | 11.24795 | 9520 ft | 290 kts | 118° |
| 2026-04-25 15:18 | 44.64316 | 11.29862 | 8894 ft | 289 kts | 116° |
| 2026-04-25 15:18 | 44.63439 | 11.32356 | 8597 ft | 289 kts | 117° |
| 2026-04-25 15:19 | 44.62525 | 11.34906 | 8281 ft | 288 kts | 117° |
| 2026-04-25 15:19 | 44.62231 | 11.35722 | 8189 ft | 288 kts | 117° |
| 2026-04-25 15:19 | 44.60721 | 11.39888 | 7683 ft | 288 kts | 117° |
| 2026-04-25 15:19 | 44.59797 | 11.42423 | 7412 ft | 287 kts | 118° |
| 2026-04-25 15:20 | 44.58914 | 11.44847 | 7298 ft | 280 kts | 118° |
| 2026-04-25 15:20 | 44.58038 | 11.47256 | 7064 ft | 277 kts | 117° |
| 2026-04-25 15:20 | 44.57170 | 11.49678 | 6793 ft | 277 kts | 117° |
| 2026-04-25 15:20 | 44.56308 | 11.52095 | 6519 ft | 277 kts | 117° |
| 2026-04-25 15:21 | 44.55442 | 11.54515 | 6241 ft | 277 kts | 117° |
| 2026-04-25 15:21 | 44.54579 | 11.56920 | 5957 ft | 276 kts | 117° |
| 2026-04-25 15:21 | 44.53716 | 11.59319 | 5686 ft | 275 kts | 118° |
| 2026-04-25 15:21 | 44.52571 | 11.61423 | 5382 ft | 272 kts | 143° |
| 2026-04-25 15:22 | 44.50894 | 11.62525 | 5130 ft | 267 kts | 171° |
| 2026-04-25 15:22 | 44.49099 | 11.62468 | 4992 ft | 251 kts | 195° |
| 2026-04-25 15:22 | 44.47532 | 11.61582 | 4877 ft | 236 kts | 207° |
| 2026-04-25 15:22 | 44.46106 | 11.60570 | 4778 ft | 225 kts | 208° |
| 2026-04-25 15:23 | 44.44780 | 11.59488 | 4645 ft | 218 kts | 223° |
| 2026-04-25 15:23 | 44.43996 | 11.57739 | 4459 ft | 213 kts | 255° |
| 2026-04-25 15:23 | 44.43953 | 11.55684 | 4241 ft | 216 kts | 282° |
| 2026-04-25 15:23 | 44.44498 | 11.53719 | 4025 ft | 218 kts | 295° |
| 2026-04-25 15:24 | 44.45192 | 11.51816 | 3782 ft | 220 kts | 296° |
| 2026-04-25 15:24 | 44.45903 | 11.49905 | 3529 ft | 222 kts | 296° |
| 2026-04-25 15:24 | 44.46646 | 11.48013 | 3346 ft | 221 kts | 298° |
| 2026-04-25 15:24 | 44.46888 | 11.47401 | 3248 ft | 221 kts | 297° |
| 2026-04-25 15:25 | 44.48063 | 11.44188 | 2678 ft | 221 kts | 296° |
| 2026-04-25 15:25 | 44.48747 | 11.42277 | 2326 ft | 217 kts | 295° |
| 2026-04-25 15:25 | 44.49406 | 11.40423 | 2006 ft | 208 kts | 296° |
| 2026-04-25 15:25 | 44.50043 | 11.38644 | 1692 ft | 199 kts | 296° |
| 2026-04-25 15:26 | 44.50645 | 11.36962 | 1399 ft | 188 kts | 296° |
| 2026-04-25 15:26 | 44.51215 | 11.35372 | 1105 ft | 177 kts | 296° |
| 2026-04-25 15:26 | 44.51750 | 11.33876 | 832 ft | 167 kts | 297° |
| 2026-04-25 15:26 | 44.52250 | 11.32481 | 630 ft | 150 kts | 297° |
| 2026-04-25 15:27 | 44.52662 | 11.31289 | 444 ft | 130 kts | 298° |
| 2026-04-25 15:27 | 44.53065 | 11.30187 | 175 ft | 124 kts | 298° |
| 2026-04-25 15:27 | 44.53736 | 11.28343 | 126 ft | 77 kts | 296° |
| 2026-04-25 15:28 | 44.53912 | 11.27844 | 125 ft | 43 kts | 297° |
| 2026-04-25 15:28 | 44.53941 | 11.27624 | 127 ft | 15 kts | 237° |
| 2026-04-25 15:28 | 44.53867 | 11.27573 | 127 ft | 10 kts | 176° |
| 2026-04-25 15:28 | 44.53809 | 11.27606 | 128 ft | 9 kts | 142° |
| 2026-04-25 15:29 | 44.53766 | 11.27699 | 127 ft | 13 kts | 116° |
| 2026-04-25 15:29 | 44.53724 | 11.27817 | 129 ft | 13 kts | 117° |
| 2026-04-25 15:29 | 44.53684 | 11.27930 | 127 ft | 13 kts | 116° |
| 2026-04-25 15:29 | 44.53644 | 11.28040 | 128 ft | 12 kts | 117° |
| 2026-04-25 15:30 | 44.53605 | 11.28147 | 126 ft | 12 kts | 117° |
| 2026-04-25 15:30 | 44.53568 | 11.28252 | 127 ft | 12 kts | 117° |
| 2026-04-25 15:30 | 44.53531 | 11.28354 | 126 ft | 12 kts | 116° |
| 2026-04-25 15:30 | 44.53496 | 11.28453 | 128 ft | 11 kts | 116° |
| 2026-04-25 15:31 | 44.53461 | 11.28550 | 127 ft | 11 kts | 117° |
| 2026-04-25 15:31 | 44.53427 | 11.28643 | 128 ft | 11 kts | 117° |
| 2026-04-25 15:31 | 44.53394 | 11.28734 | 128 ft | 10 kts | 116° |
| 2026-04-25 15:31 | 44.53362 | 11.28826 | 127 ft | 11 kts | 116° |
| 2026-04-25 15:32 | 44.53324 | 11.28932 | 128 ft | 13 kts | 117° |
| 2026-04-25 15:32 | 44.53281 | 11.29023 | 129 ft | 8 kts | 164° |
| 2026-04-25 15:32 | 44.53231 | 11.29051 | 129 ft | 9 kts | 124° |
| 2026-04-25 15:33 | 44.53165 | 11.29231 | 126 ft | 7 kts | 117° |
| 2026-04-25 15:33 | 44.53149 | 11.29257 | 129 ft | 2 kts | 162° |
| 2026-04-25 15:33 | 44.53127 | 11.29249 | 130 ft | 6 kts | 200° |
| 2026-04-25 15:33 | 44.53104 | 11.29234 | 125 ft | 0 kts | 206° |